首页
METAR-TAF:

METAR-TAF

机场 :

米登霍爾皇家空軍基地

Mildenhall, 英格兰

纬度: 52-22N, 经度: 000-29E, 海拔: 10米

当前天气观测

该预报发布于27分钟前的15:57 UTC
风速11节,风向西,有时为19节阵风
温度 13°C
湿度 58%
气压 1011 hPa
能见度10公里或以上
多云层高于5000英尺

METAR: EGUN 021557Z 28011G19KT 9999 BKN050 13/05 A2986 RMK AO2A SLP111 WND DATA ESTMD ALSTG/SLP ESTMD RVRNO

时间: 17:24 (16:24 UTC)

预报

该预报发布于4小时和24分钟前的12:00 UTC
预报有效从02日的 12点(UTC)到 03日的 18点(UTC)
风速12节,风向西,有时为20节阵风
能见度10公里或以上
多云层高于5000英尺
成为
从 02日的 17点(UTC)到 02日的 18点(UTC)
风速9节,风向西转西北
能见度10公里或以上
多云层高于4000英尺
成为
从 03日的 07点(UTC)到 03日的 08点(UTC)
风速12节,风向西北
能见度10公里或以上
散云层高于5000英尺

TAF: EGUN 021200Z 0212/0318 28012G20KT 9999 BKN050 QNH2986INS BECMG 0217/0218 30009KT 9999 BKN040 QNH2987INS BECMG 0307/0308 31012KT 9999 SCT050 QNH3004INS TX12/0212Z TN03/0305Z

超过4000个机场的气象观测和天气预报(METAR&TAF报告)。

可查询的气象台以黄色和红色小点在地图上表示。

将鼠标移到小点上方,可查看气象台名称。

然后点击查看天气观测和预报。

如需切换地图:点击带黑十字的绿色按钮放大地图;点击带横线的绿色按钮缩小地图;或者点击绿色箭头查看邻近地区的地图。


METAR-TAF: